createdAt,value
2023-08-07T00:01:23.751Z,9.80
2023-08-07T00:03:52.253Z,8.68
2023-08-07T00:06:20.531Z,10.40
2023-08-07T00:08:48.995Z,14.57
2023-08-07T00:11:17.348Z,12.93
2023-08-07T00:13:45.753Z,10.52
2023-08-07T00:16:14.320Z,7.03
2023-08-07T00:18:42.621Z,13.75
2023-08-07T00:21:11.096Z,6.63
2023-08-07T00:23:39.445Z,12.40
2023-08-07T00:26:07.937Z,9.73
2023-08-07T00:28:36.266Z,9.85
2023-08-07T00:31:04.722Z,6.75
2023-08-07T00:33:33.120Z,8.02
2023-08-07T00:36:01.461Z,10.80
2023-08-07T00:38:29.879Z,8.30
2023-08-07T00:40:58.282Z,8.50
2023-08-07T00:43:26.820Z,10.48
2023-08-07T00:45:55.516Z,8.10
2023-08-07T00:48:23.930Z,10.93
2023-08-07T00:50:54.079Z,8.27
2023-08-07T00:53:23.837Z,9.32
2023-08-07T00:55:52.456Z,8.57
2023-08-07T00:58:20.344Z,8.70
2023-08-07T01:00:50.905Z,10.88
2023-08-07T01:03:20.765Z,10.82
2023-08-07T01:05:50.624Z,9.35
2023-08-07T01:08:22.063Z,9.32
2023-08-07T01:11:51.657Z,10.13
2023-08-07T01:14:47.740Z,15.68
2023-08-07T01:17:24.689Z,10.68
2023-08-07T01:19:56.704Z,10.15
2023-08-07T01:22:26.963Z,13.05
2023-08-07T01:24:57.323Z,14.32
2023-08-07T01:28:12.281Z,14.77
2023-08-07T01:30:53.742Z,13.20
2023-08-07T01:33:41.117Z,16.33
2023-08-07T01:38:54.156Z,14.07
2023-08-07T01:41:23.612Z,11.80
2023-08-07T01:43:53.837Z,12.57
2023-08-07T01:46:22.379Z,17.33
2023-08-07T01:48:50.207Z,13.50
2023-08-07T01:51:18.572Z,15.10
2023-08-07T01:53:48.966Z,14.75
2023-08-07T01:56:19.167Z,12.57
2023-08-07T01:58:49.279Z,9.93
2023-08-07T02:01:19.388Z,16.38
2023-08-07T02:03:49.660Z,17.70
2023-08-07T02:06:19.930Z,15.18
2023-08-07T02:08:50.407Z,12.27
2023-08-07T02:11:20.504Z,12.35
2023-08-07T02:13:50.608Z,12.38
2023-08-07T02:16:20.787Z,15.48
2023-08-07T02:18:50.936Z,13.30
2023-08-07T02:21:21.109Z,11.55
2023-08-07T02:23:51.427Z,12.93
2023-08-07T02:26:21.573Z,14.13
2023-08-07T02:28:54.592Z,14.38
2023-08-07T02:31:24.702Z,13.30
2023-08-07T02:33:54.860Z,13.98
2023-08-07T02:36:24.980Z,15.13
2023-08-07T02:38:55.113Z,18.38
2023-08-07T02:41:25.223Z,16.73
2023-08-07T02:43:55.409Z,15.75
2023-08-07T02:46:25.786Z,18.02
2023-08-07T02:48:55.935Z,19.67
2023-08-07T02:51:26.088Z,13.30
2023-08-07T02:53:56.202Z,13.68
2023-08-07T02:56:26.343Z,13.55
2023-08-07T02:58:59.361Z,16.95
2023-08-07T03:01:30.851Z,14.75
2023-08-07T03:04:01.018Z,16.60
2023-08-07T03:06:29.548Z,17.05
2023-08-07T03:08:57.757Z,14.10
2023-08-07T03:11:26.208Z,15.80
2023-08-07T03:13:54.608Z,15.23
2023-08-07T03:16:23.094Z,17.17
2023-08-07T03:18:51.479Z,13.70
2023-08-07T03:21:19.766Z,16.38
2023-08-07T03:23:48.243Z,24.10
2023-08-07T03:26:19.453Z,18.75
2023-08-07T03:28:49.937Z,14.85
2023-08-07T03:31:19.556Z,17.60
2023-08-07T03:33:47.904Z,18.42
2023-08-07T03:36:16.299Z,18.10
2023-08-07T03:38:44.712Z,21.98
2023-08-07T03:41:13.242Z,23.75
2023-08-07T03:43:41.500Z,15.80
2023-08-07T03:46:09.962Z,16.42
2023-08-07T03:48:40.027Z,20.50
2023-08-07T03:51:10.424Z,17.50
2023-08-07T03:53:40.663Z,16.02
2023-08-07T03:56:10.456Z,18.23
2023-08-07T03:58:41.321Z,21.40
2023-08-07T04:01:11.775Z,20.30
2023-08-07T04:03:40.326Z,21.05
2023-08-07T04:06:09.264Z,17.05
2023-08-07T04:08:37.046Z,19.90
2023-08-07T04:11:06.757Z,15.85
2023-08-07T04:13:36.931Z,16.60
2023-08-07T04:16:06.161Z,16.13
2023-08-07T04:18:35.135Z,20.27
2023-08-07T04:21:05.399Z,15.93
2023-08-07T04:23:35.253Z,15.63
2023-08-07T04:26:05.362Z,15.15
2023-08-07T04:28:35.092Z,15.90
2023-08-07T04:31:04.904Z,16.65
2023-08-07T04:33:34.705Z,14.75
2023-08-07T04:36:05.167Z,18.10
2023-08-07T04:38:35.186Z,14.63
2023-08-07T04:41:05.031Z,20.42
2023-08-07T04:43:34.959Z,17.23
2023-08-07T04:46:04.727Z,17.02
2023-08-07T04:48:34.721Z,16.02
2023-08-07T04:51:04.783Z,13.65
2023-08-07T04:53:34.747Z,11.80
2023-08-07T04:56:04.934Z,15.60
2023-08-07T04:58:34.736Z,11.13
2023-08-07T05:01:03.133Z,14.30
2023-08-07T05:03:32.633Z,13.20
2023-08-07T05:06:02.078Z,12.55
2023-08-07T05:08:31.415Z,11.30
2023-08-07T05:10:59.884Z,17.60
2023-08-07T05:13:28.236Z,11.65
2023-08-07T05:15:56.626Z,11.23
2023-08-07T05:18:25.124Z,12.73
2023-08-07T05:20:53.516Z,11.50
2023-08-07T05:23:21.917Z,10.93
2023-08-07T05:25:50.442Z,11.50
2023-08-07T05:28:18.843Z,11.07
2023-08-07T05:30:47.280Z,9.43
2023-08-07T05:33:16.862Z,14.35
2023-08-07T05:35:44.276Z,12.95
2023-08-07T05:38:12.620Z,10.38
2023-08-07T05:40:41.973Z,15.60
2023-08-07T05:43:10.056Z,9.68
2023-08-07T05:45:38.406Z,12.77
2023-08-07T05:48:08.023Z,13.10
2023-08-07T05:50:38.374Z,11.10
2023-08-07T05:53:08.500Z,9.30
2023-08-07T05:55:44.568Z,9.90
2023-08-07T05:58:14.718Z,9.15
2023-08-07T06:00:44.791Z,10.10
2023-08-07T06:03:14.654Z,11.85
2023-08-07T06:05:44.639Z,10.13
2023-08-07T06:08:14.453Z,9.25
2023-08-07T06:10:44.249Z,10.63
2023-08-07T06:13:19.818Z,10.48
2023-08-07T06:15:56.929Z,11.35
2023-08-07T06:18:26.855Z,8.85
2023-08-07T06:20:57.789Z,7.43
2023-08-07T06:23:27.850Z,8.35
2023-08-07T06:25:59.906Z,13.38
2023-08-07T06:28:30.167Z,10.77
2023-08-07T06:31:09.356Z,7.95
2023-08-07T06:33:40.326Z,12.65
2023-08-07T06:36:10.655Z,8.20
2023-08-07T06:38:40.393Z,7.95
2023-08-07T06:41:10.422Z,6.07
2023-08-07T06:43:40.342Z,8.77
2023-08-07T06:46:10.192Z,8.77
2023-08-07T06:48:40.061Z,5.40
2023-08-07T06:51:09.816Z,5.57
2023-08-07T06:53:39.660Z,5.68
2023-08-07T06:56:09.489Z,5.68
2023-08-07T06:58:39.317Z,6.75
2023-08-07T07:01:09.431Z,7.70
2023-08-07T07:03:39.265Z,9.93
2023-08-07T07:06:09.700Z,6.05
2023-08-07T07:08:39.765Z,8.80
2023-08-07T07:11:09.723Z,5.70
2023-08-07T07:13:40.215Z,7.30
2023-08-07T07:16:09.919Z,6.70
2023-08-07T07:18:40.707Z,6.78
2023-08-07T07:21:08.316Z,6.53
2023-08-07T07:23:36.742Z,6.00
2023-08-07T07:26:05.190Z,6.93
2023-08-07T07:28:33.637Z,4.25
2023-08-07T07:31:01.990Z,5.50
2023-08-07T07:33:30.442Z,5.95
2023-08-07T07:35:58.894Z,4.07
2023-08-07T07:38:27.698Z,4.07
2023-08-07T07:40:57.955Z,7.63
2023-08-07T07:43:27.061Z,6.88
2023-08-07T07:45:55.538Z,6.30
2023-08-07T07:48:23.827Z,3.55
2023-08-07T07:50:54.208Z,8.18
2023-08-07T07:53:25.870Z,6.15
2023-08-07T07:55:56.761Z,4.07
2023-08-07T07:58:26.649Z,3.90
2023-08-07T08:00:56.209Z,4.88
2023-08-07T08:03:26.329Z,6.72
2023-08-07T08:05:56.316Z,5.50
2023-08-07T08:08:28.938Z,3.15
2023-08-07T08:10:57.527Z,4.47
2023-08-07T08:13:26.873Z,3.65
2023-08-07T08:15:54.370Z,4.63
2023-08-07T08:18:22.808Z,5.60
2023-08-07T08:20:51.051Z,4.22
2023-08-07T08:23:19.544Z,6.22
2023-08-07T08:25:49.007Z,6.18
2023-08-07T08:28:16.923Z,4.90
2023-08-07T08:30:44.810Z,4.45
2023-08-07T08:33:15.824Z,8.10
2023-08-07T08:35:46.390Z,4.60
2023-08-07T08:38:20.689Z,5.80
2023-08-07T08:40:53.963Z,7.97
2023-08-07T08:43:28.838Z,3.88
2023-08-07T08:45:57.622Z,6.32
2023-08-07T08:48:29.535Z,5.07
2023-08-07T08:50:57.767Z,6.05
2023-08-07T08:53:28.756Z,7.55
2023-08-07T08:55:56.359Z,4.65
2023-08-07T08:58:25.429Z,5.15
2023-08-07T09:00:54.336Z,7.22
2023-08-07T09:03:26.811Z,7.95
2023-08-07T09:06:03.027Z,6.05
2023-08-07T09:08:35.907Z,4.47
2023-08-07T09:11:05.986Z,5.10
2023-08-07T09:13:38.173Z,6.65
2023-08-07T09:16:11.591Z,3.67
2023-08-07T09:18:42.524Z,6.78
2023-08-07T09:21:13.355Z,7.40
2023-08-07T09:23:43.008Z,4.43
2023-08-07T09:26:13.991Z,6.57
2023-08-07T09:28:44.684Z,7.30
2023-08-07T09:31:18.991Z,6.53
2023-08-07T09:33:51.285Z,6.43
2023-08-07T09:36:21.452Z,5.13
2023-08-07T09:38:52.157Z,3.80
2023-08-07T09:41:23.749Z,4.00
2023-08-07T09:43:54.037Z,4.40
2023-08-07T09:46:27.113Z,3.67
2023-08-07T09:49:00.591Z,4.13
2023-08-07T09:51:47.866Z,5.97
2023-08-07T09:54:16.545Z,4.35
2023-08-07T09:56:49.031Z,5.13
2023-08-07T09:59:18.454Z,6.50
2023-08-07T10:01:49.007Z,4.50
2023-08-07T10:04:19.498Z,4.50
2023-08-07T10:06:50.512Z,3.45
2023-08-07T10:09:17.963Z,4.30
2023-08-07T10:11:47.560Z,4.93
2023-08-07T10:14:19.687Z,4.82
2023-08-07T10:16:52.611Z,2.70
2023-08-07T10:19:22.777Z,4.00
2023-08-07T10:21:55.692Z,2.95
2023-08-07T10:24:28.126Z,2.55
2023-08-07T10:27:01.435Z,5.28
2023-08-07T10:29:36.259Z,5.57
2023-08-07T10:32:11.638Z,6.10
2023-08-07T10:34:42.051Z,5.32
2023-08-07T10:37:46.458Z,4.25
2023-08-07T10:40:16.967Z,6.93
2023-08-07T10:42:56.103Z,3.40
2023-08-07T10:45:28.015Z,6.70
2023-08-07T10:48:12.882Z,2.85
2023-08-07T10:50:56.144Z,3.50
2023-08-07T10:53:56.827Z,4.93
2023-08-07T10:56:38.872Z,3.42
2023-08-07T10:59:14.257Z,2.85
2023-08-07T11:01:45.271Z,7.22
2023-08-07T11:04:16.608Z,8.75
2023-08-07T11:06:50.452Z,2.47
2023-08-07T11:09:20.648Z,4.22
2023-08-07T11:11:51.119Z,2.42
2023-08-07T11:14:21.548Z,2.58
2023-08-07T11:16:51.668Z,2.70
2023-08-07T11:19:21.891Z,5.00
2023-08-07T11:21:52.010Z,4.30
2023-08-07T11:24:22.847Z,2.88
2023-08-07T11:26:50.095Z,4.53
2023-08-07T11:29:20.555Z,2.70
2023-08-07T11:31:52.960Z,3.20
2023-08-07T11:34:23.697Z,2.83
2023-08-07T11:36:56.652Z,3.42
2023-08-07T11:39:27.597Z,2.53
2023-08-07T11:41:57.974Z,3.08
2023-08-07T11:44:30.354Z,3.55
2023-08-07T11:47:01.449Z,4.57
2023-08-07T11:49:31.631Z,4.40
2023-08-07T11:52:02.072Z,6.05
2023-08-07T11:54:30.292Z,5.78
2023-08-07T11:56:58.910Z,5.43
2023-08-07T11:59:27.752Z,4.70
2023-08-07T12:01:55.566Z,4.50
2023-08-07T12:04:23.886Z,5.38
2023-08-07T12:06:58.651Z,5.05
2023-08-07T12:09:29.896Z,4.63
2023-08-07T12:12:00.190Z,3.33
2023-08-07T12:14:33.368Z,7.00
2023-08-07T12:17:05.252Z,4.75
2023-08-07T12:19:44.514Z,3.05
2023-08-07T12:22:14.836Z,5.05
2023-08-07T12:24:45.054Z,4.68
2023-08-07T12:27:15.181Z,5.90
2023-08-07T12:29:45.305Z,3.53
2023-08-07T12:32:15.422Z,5.68
2023-08-07T12:37:19.128Z,4.47
2023-08-07T12:42:25.616Z,4.95
2023-08-07T12:44:55.994Z,3.20
2023-08-07T12:47:26.340Z,4.60
2023-08-07T12:49:54.523Z,4.35
2023-08-07T12:52:23.016Z,2.55
2023-08-07T12:54:51.399Z,3.10
2023-08-07T12:57:19.786Z,1.70
2023-08-07T12:59:48.233Z,3.63
2023-08-07T13:02:16.633Z,4.55
2023-08-07T13:04:45.255Z,5.68
2023-08-07T13:07:13.828Z,3.05
2023-08-07T13:09:41.957Z,3.15
2023-08-07T13:12:10.442Z,3.97
2023-08-07T13:14:39.525Z,6.45
2023-08-07T13:17:07.231Z,4.03
2023-08-07T13:19:35.978Z,4.20
2023-08-07T13:22:04.161Z,3.97
2023-08-07T13:24:32.870Z,6.25
2023-08-07T13:27:00.736Z,5.38
2023-08-07T13:29:30.971Z,6.20
2023-08-07T13:32:00.713Z,8.23
2023-08-07T13:34:29.015Z,5.15
2023-08-07T13:36:57.451Z,6.10
2023-08-07T13:39:25.804Z,7.65
2023-08-07T13:41:54.687Z,7.40
2023-08-07T13:44:23.677Z,8.02
2023-08-07T13:46:53.867Z,5.53
2023-08-07T13:49:24.814Z,5.65
2023-08-07T13:51:55.203Z,7.03
2023-08-07T13:54:25.782Z,7.03
2023-08-07T13:56:54.221Z,7.15
2023-08-07T13:59:22.621Z,4.55
2023-08-07T14:01:51.307Z,7.68
2023-08-07T14:04:19.513Z,6.72
2023-08-07T14:06:48.112Z,6.20
2023-08-07T14:09:16.221Z,5.63
2023-08-07T14:11:44.535Z,6.50
2023-08-07T14:14:13.011Z,6.20
2023-08-07T14:16:41.452Z,6.93
2023-08-07T14:19:10.307Z,6.70
2023-08-07T14:21:38.248Z,6.53
2023-08-07T14:24:07.750Z,7.25
2023-08-07T14:26:35.343Z,7.53
2023-08-07T14:29:03.524Z,4.65
2023-08-07T14:31:31.932Z,7.55
2023-08-07T14:34:00.304Z,6.05
2023-08-07T14:36:28.662Z,5.38
2023-08-07T14:38:57.135Z,8.32
2023-08-07T14:41:25.521Z,5.88
2023-08-07T14:43:53.931Z,7.07
2023-08-07T14:46:23.297Z,6.50
2023-08-07T14:48:50.921Z,3.83
2023-08-07T14:51:19.229Z,8.57
2023-08-07T14:53:47.562Z,5.65
2023-08-07T14:56:16.014Z,12.52
2023-08-07T14:58:44.390Z,6.28
2023-08-07T15:01:12.741Z,3.60
2023-08-07T15:03:41.189Z,8.18
2023-08-07T15:06:09.616Z,8.73
2023-08-07T15:08:37.960Z,7.93
2023-08-07T15:11:06.478Z,8.82
2023-08-07T15:13:37.839Z,12.15
2023-08-07T15:16:06.293Z,6.15
2023-08-07T15:18:34.894Z,7.50
2023-08-07T15:21:05.280Z,10.43
2023-08-07T15:23:35.542Z,9.82
2023-08-07T15:26:05.907Z,9.65
2023-08-07T15:28:36.174Z,6.18
2023-08-07T15:31:06.709Z,7.93
2023-08-07T15:33:36.859Z,7.40
2023-08-07T15:36:07.201Z,7.72
2023-08-07T15:38:39.663Z,6.60
2023-08-07T15:41:12.538Z,9.00
2023-08-07T15:43:42.805Z,8.38
2023-08-07T15:46:13.024Z,6.95
2023-08-07T15:48:44.028Z,6.88
2023-08-07T15:51:14.489Z,8.30
2023-08-07T15:53:44.684Z,10.23
2023-08-07T15:56:14.859Z,4.95
2023-08-07T15:58:44.990Z,5.03
2023-08-07T16:01:13.765Z,8.52
2023-08-07T16:03:41.923Z,4.68
2023-08-07T16:06:10.323Z,3.90
2023-08-07T16:08:38.962Z,6.45
2023-08-07T16:11:07.275Z,7.68
2023-08-07T16:13:36.467Z,7.68
2023-08-07T16:16:06.691Z,7.75
2023-08-07T16:18:37.897Z,11.57
2023-08-07T16:21:08.374Z,7.53
2023-08-07T16:23:38.647Z,9.13
2023-08-07T16:26:08.807Z,8.60
2023-08-07T16:28:39.026Z,6.75
2023-08-07T16:31:09.290Z,5.55
2023-08-07T16:33:40.284Z,5.70
2023-08-07T16:36:10.510Z,7.43
2023-08-07T16:38:40.701Z,9.60
2023-08-07T16:41:13.440Z,6.45
2023-08-07T16:43:44.280Z,6.00
2023-08-07T16:46:14.569Z,7.85
2023-08-07T16:48:42.888Z,4.85
2023-08-07T16:51:15.731Z,7.22
2023-08-07T16:53:49.539Z,7.13
2023-08-07T16:56:19.836Z,6.13
2023-08-07T16:58:51.646Z,5.68
2023-08-07T17:01:22.984Z,8.10
2023-08-07T17:03:53.217Z,5.22
2023-08-07T17:06:23.374Z,3.50
2023-08-07T17:08:53.586Z,8.90
2023-08-07T17:11:24.697Z,4.90
2023-08-07T17:13:58.191Z,10.07
2023-08-07T17:16:29.497Z,9.15
2023-08-07T17:19:00.931Z,9.02
2023-08-07T17:21:31.052Z,7.30
2023-08-07T17:24:01.172Z,4.20
2023-08-07T17:26:31.544Z,6.22
2023-08-07T17:29:01.877Z,6.78
2023-08-07T17:31:32.097Z,6.78
2023-08-07T17:34:02.323Z,6.03
2023-08-07T17:36:32.671Z,7.85
2023-08-07T17:39:02.955Z,5.95
2023-08-07T17:41:33.115Z,7.72
2023-08-07T17:44:03.294Z,6.18
2023-08-07T17:46:33.892Z,5.65
2023-08-07T17:49:04.146Z,5.93
2023-08-07T17:51:34.434Z,4.47
2023-08-07T17:54:04.709Z,5.97
2023-08-07T17:56:37.173Z,5.50
2023-08-07T17:59:07.144Z,5.15
2023-08-07T18:01:34.761Z,5.57
2023-08-07T18:04:03.307Z,8.15
2023-08-07T18:06:31.754Z,7.75
2023-08-07T18:09:00.072Z,5.68
2023-08-07T18:11:28.432Z,10.77
2023-08-07T18:13:56.999Z,4.50
2023-08-07T18:16:26.556Z,9.25
2023-08-07T18:18:57.096Z,7.00
2023-08-07T18:21:27.332Z,8.60
2023-08-07T18:23:57.726Z,9.43
2023-08-07T18:26:27.965Z,4.05
2023-08-07T18:28:56.733Z,10.15
2023-08-07T18:31:26.514Z,5.28
2023-08-07T18:33:56.090Z,7.88
2023-08-07T18:36:24.713Z,4.10
2023-08-07T18:38:52.954Z,5.05
2023-08-07T18:41:21.613Z,5.30
2023-08-07T18:43:50.216Z,6.18
2023-08-07T18:46:18.210Z,6.90
2023-08-07T18:48:47.116Z,5.03
2023-08-07T18:51:15.081Z,8.38
2023-08-07T18:53:43.797Z,4.25
2023-08-07T18:56:11.846Z,5.95
2023-08-07T18:58:40.200Z,7.75
2023-08-07T19:01:08.597Z,8.15
2023-08-07T19:03:37.139Z,5.68
2023-08-07T19:06:06.735Z,6.13
2023-08-07T19:08:40.209Z,5.82
2023-08-07T19:11:10.498Z,5.05
2023-08-07T19:13:40.676Z,8.15
2023-08-07T19:16:11.062Z,9.60
2023-08-07T19:18:41.261Z,6.97
2023-08-07T19:21:11.381Z,8.27
2023-08-07T19:23:41.506Z,10.05
2023-08-07T19:26:11.890Z,8.63
2023-08-07T19:28:42.074Z,6.68
2023-08-07T19:31:12.247Z,7.78
2023-08-07T19:33:42.592Z,4.38
2023-08-07T19:36:13.077Z,6.32
2023-08-07T19:38:43.276Z,5.65
2023-08-07T19:41:14.233Z,9.32
2023-08-07T19:43:45.317Z,8.93
2023-08-07T19:46:16.300Z,8.55
2023-08-07T19:48:43.925Z,6.18
2023-08-07T19:51:16.423Z,7.85
2023-08-07T19:53:59.786Z,4.90
2023-08-07T19:56:34.377Z,6.97
2023-08-07T19:59:06.884Z,6.85
2023-08-07T20:01:35.288Z,5.72
2023-08-07T20:04:04.687Z,4.95
2023-08-07T20:06:32.182Z,8.32
2023-08-07T20:09:00.488Z,7.43
2023-08-07T20:11:35.439Z,8.13
2023-08-07T20:14:06.366Z,7.38
2023-08-07T20:16:36.856Z,5.18
2023-08-07T20:19:07.228Z,7.20
2023-08-07T20:21:37.596Z,7.22
2023-08-07T20:24:07.917Z,9.50
2023-08-07T20:26:38.105Z,7.05
2023-08-07T20:29:08.249Z,9.98
2023-08-07T20:31:38.392Z,4.63
2023-08-07T20:34:08.764Z,4.88
2023-08-07T20:36:38.927Z,8.00
2023-08-07T20:39:14.132Z,5.25
2023-08-07T20:41:45.691Z,7.30
2023-08-07T20:44:15.891Z,7.75
2023-08-07T20:46:46.145Z,4.00
2023-08-07T20:49:16.287Z,5.45
2023-08-07T20:51:46.509Z,5.72
2023-08-07T20:54:16.635Z,11.20
2023-08-07T20:56:47.973Z,6.80
2023-08-07T20:59:18.141Z,6.05
2023-08-07T21:01:48.317Z,5.18
2023-08-07T21:04:18.675Z,5.63
2023-08-07T21:06:51.780Z,3.90
2023-08-07T21:09:22.255Z,5.72
2023-08-07T21:11:53.728Z,5.18
2023-08-07T21:14:23.768Z,8.02
2023-08-07T21:16:52.320Z,9.50
2023-08-07T21:19:20.634Z,7.25
2023-08-07T21:21:49.134Z,6.72
2023-08-07T21:24:17.499Z,7.78
2023-08-07T21:26:45.858Z,9.15
2023-08-07T21:29:14.248Z,4.53
2023-08-07T21:31:42.821Z,8.75
2023-08-07T21:34:11.078Z,4.78
2023-08-07T21:36:39.472Z,8.10
2023-08-07T21:39:08.039Z,7.28
2023-08-07T21:41:36.411Z,8.82
2023-08-07T21:44:05.066Z,4.93
2023-08-07T21:46:33.233Z,5.78
2023-08-07T21:49:02.193Z,6.22
2023-08-07T21:51:30.079Z,4.53
2023-08-07T21:53:58.367Z,10.40
2023-08-07T21:56:26.873Z,7.93
2023-08-07T21:58:55.493Z,6.28
2023-08-07T22:01:23.812Z,7.70
2023-08-07T22:03:52.200Z,7.43
2023-08-07T22:06:20.581Z,7.47
2023-08-07T22:08:48.841Z,9.38
2023-08-07T22:11:17.403Z,9.55
2023-08-07T22:13:46.438Z,3.85
2023-08-07T22:16:14.468Z,10.95
2023-08-07T22:18:42.611Z,8.02
2023-08-07T22:21:10.957Z,8.23
2023-08-07T22:23:39.535Z,8.27
2023-08-07T22:26:07.844Z,9.38
2023-08-07T22:28:37.601Z,9.45
2023-08-07T22:31:07.704Z,7.22
2023-08-07T22:33:38.103Z,4.45
2023-08-07T22:36:12.745Z,4.53
2023-08-07T22:38:43.377Z,6.68
2023-08-07T22:41:13.782Z,5.47
2023-08-07T22:43:43.991Z,7.18
2023-08-07T22:46:14.244Z,11.35
2023-08-07T22:48:44.443Z,4.72
2023-08-07T22:51:14.604Z,6.88
2023-08-07T22:53:44.806Z,8.77
2023-08-07T22:56:14.996Z,9.43
2023-08-07T22:58:45.102Z,7.13
2023-08-07T23:01:15.355Z,4.95
2023-08-07T23:03:45.471Z,7.97
2023-08-07T23:06:15.646Z,4.72
2023-08-07T23:08:45.853Z,5.68
2023-08-07T23:11:16.050Z,8.57
2023-08-07T23:13:46.187Z,5.30
2023-08-07T23:16:16.423Z,10.65
2023-08-07T23:18:46.635Z,5.40
2023-08-07T23:21:17.306Z,6.82
2023-08-07T23:23:47.525Z,7.22
2023-08-07T23:26:16.008Z,5.95
2023-08-07T23:28:44.321Z,5.45
2023-08-07T23:31:12.805Z,5.25
2023-08-07T23:33:42.581Z,5.85
2023-08-07T23:36:12.617Z,4.85
2023-08-07T23:38:41.026Z,8.05
2023-08-07T23:41:09.486Z,7.60
2023-08-07T23:43:37.939Z,4.90
2023-08-07T23:46:06.411Z,8.38
2023-08-07T23:48:35.780Z,10.75
2023-08-07T23:51:03.320Z,7.35
2023-08-07T23:53:31.845Z,6.93
2023-08-07T23:56:00.259Z,8.73
2023-08-07T23:58:28.548Z,7.38
